Terminal Aerodrome Forecast
Issued by NWS Amarillo, TX

Home | Current Version | Previous Version | Text Only | Print | Product List | Glossary On
Versions: 1 2 3 4 5 6 7 8 9 10 11 12 13 14 15 16 17 18 19 20
053
FTUS44 KAMA 292320
TAFAMA
TAF
KAMA 292320Z 3000/3024 17015G23KT P6SM SCT080
     FM300300 14010KT P6SM SCT080 OVC100
      TEMPO 3003/3007 VRB20G30KT -TSRA BKN080CB
     FM301400 20015G23KT P6SM SCT250=

USA.gov is the U.S. government's official web portal to all federal, state and local government web resources and services.